createdAt,value
2022-11-03T00:01:36.285Z,2.43
2022-11-03T00:04:04.563Z,1.90
2022-11-03T00:06:32.630Z,1.87
2022-11-03T00:09:01.562Z,1.90
2022-11-03T00:11:33.166Z,2.57
2022-11-03T00:14:01.084Z,1.93
2022-11-03T00:16:29.063Z,1.90
2022-11-03T00:18:56.837Z,2.10
2022-11-03T00:21:24.777Z,1.63
2022-11-03T00:23:52.947Z,2.00
2022-11-03T00:26:22.382Z,1.90
2022-11-03T00:28:53.508Z,2.20
2022-11-03T00:31:23.089Z,2.00
2022-11-03T00:33:51.349Z,2.00
2022-11-03T00:36:21.200Z,2.30
2022-11-03T00:38:49.373Z,2.83
2022-11-03T00:41:17.839Z,2.03
2022-11-03T00:43:45.633Z,1.90
2022-11-03T00:46:15.154Z,2.37
2022-11-03T00:48:42.953Z,1.93
2022-11-03T00:51:12.268Z,2.00
2022-11-03T00:53:42.144Z,1.80
2022-11-03T00:56:14.133Z,2.27
2022-11-03T00:58:42.556Z,2.13
2022-11-03T01:01:13.391Z,2.03
2022-11-03T01:04:05.783Z,2.50
2022-11-03T01:06:51.756Z,2.20
2022-11-03T01:09:20.255Z,2.27
2022-11-03T01:11:55.307Z,2.47
2022-11-03T01:14:23.228Z,2.20
2022-11-03T01:16:50.943Z,2.40
2022-11-03T01:19:20.261Z,2.73
2022-11-03T01:21:48.109Z,2.23
2022-11-03T01:24:15.831Z,2.30
2022-11-03T01:26:43.573Z,2.20
2022-11-03T01:29:11.291Z,2.10
2022-11-03T01:31:38.978Z,2.70
2022-11-03T01:34:06.744Z,2.50
2022-11-03T01:36:35.799Z,2.23
2022-11-03T01:39:03.529Z,2.07
2022-11-03T01:41:31.272Z,2.20
2022-11-03T01:44:41.473Z,2.40
2022-11-03T01:47:27.342Z,2.23
2022-11-03T01:49:58.319Z,2.50
2022-11-03T01:52:33.996Z,2.37
2022-11-03T01:55:05.332Z,2.33
2022-11-03T01:57:37.492Z,2.40
2022-11-03T02:00:06.730Z,2.53
2022-11-03T02:02:34.655Z,2.67
2022-11-03T02:05:05.853Z,2.50
2022-11-03T02:07:41.297Z,2.47
2022-11-03T02:10:10.370Z,2.47
2022-11-03T02:12:38.585Z,2.37
2022-11-03T02:15:09.936Z,2.30
2022-11-03T02:17:39.043Z,2.63
2022-11-03T02:20:11.154Z,2.80
2022-11-03T02:23:06.167Z,2.63
2022-11-03T02:25:54.253Z,2.40
2022-11-03T02:28:25.244Z,2.50
2022-11-03T02:31:00.216Z,2.67
2022-11-03T02:33:37.963Z,2.60
2022-11-03T02:36:12.636Z,2.43
2022-11-03T02:38:55.312Z,2.93
2022-11-03T02:41:26.129Z,2.40
2022-11-03T02:43:56.255Z,3.13
2022-11-03T02:46:26.738Z,2.40
2022-11-03T02:48:54.536Z,2.57
2022-11-03T02:51:22.305Z,2.03
2022-11-03T02:54:03.042Z,2.43
2022-11-03T02:56:32.985Z,2.10
2022-11-03T02:59:03.263Z,2.43
2022-11-03T03:01:47.417Z,2.43
2022-11-03T03:04:22.522Z,2.17
2022-11-03T03:06:54.406Z,2.30
2022-11-03T03:09:26.106Z,2.00
2022-11-03T03:11:57.969Z,2.23
2022-11-03T03:14:31.679Z,2.33
2022-11-03T03:17:01.951Z,2.40
2022-11-03T03:19:45.233Z,2.13
2022-11-03T03:22:19.811Z,2.03
2022-11-03T03:24:54.549Z,2.03
2022-11-03T03:27:27.607Z,2.30
2022-11-03T03:29:59.637Z,2.30
2022-11-03T03:32:30.396Z,2.00
2022-11-03T03:35:00.462Z,2.30
2022-11-03T03:37:30.395Z,2.20
2022-11-03T03:40:04.686Z,2.30
2022-11-03T03:42:37.316Z,2.00
2022-11-03T03:45:07.496Z,2.17
2022-11-03T03:47:38.687Z,2.00
2022-11-03T03:50:07.606Z,2.63
2022-11-03T03:52:38.467Z,2.20
2022-11-03T03:55:15.334Z,2.03
2022-11-03T03:57:45.299Z,2.40
2022-11-03T04:00:16.028Z,2.07
2022-11-03T04:02:43.917Z,2.30
2022-11-03T04:05:11.677Z,2.37
2022-11-03T04:07:48.148Z,2.03
2022-11-03T04:10:16.365Z,2.20
2022-11-03T04:13:03.855Z,2.03
2022-11-03T04:15:50.160Z,2.00
2022-11-03T04:18:36.362Z,2.77
2022-11-03T04:21:22.078Z,1.70
2022-11-03T04:23:50.030Z,1.90
2022-11-03T04:26:22.859Z,1.90
2022-11-03T04:28:54.089Z,2.33
2022-11-03T04:31:22.495Z,2.30
2022-11-03T04:33:53.880Z,2.30
2022-11-03T04:36:23.543Z,2.40
2022-11-03T04:38:52.429Z,1.97
2022-11-03T04:41:23.010Z,1.93
2022-11-03T04:43:53.696Z,2.03
2022-11-03T04:46:26.374Z,2.00
2022-11-03T04:48:54.835Z,1.90
2022-11-03T04:51:26.479Z,1.90
2022-11-03T04:53:56.566Z,1.67
2022-11-03T04:56:26.314Z,1.90
2022-11-03T04:58:55.477Z,2.30
2022-11-03T05:01:25.111Z,1.87
2022-11-03T05:03:56.529Z,2.20
2022-11-03T05:06:27.972Z,1.97
2022-11-03T05:08:59.672Z,2.20
2022-11-03T05:11:32.616Z,2.27
2022-11-03T05:14:04.156Z,1.77
2022-11-03T05:16:32.752Z,2.30
2022-11-03T05:19:01.164Z,2.10
2022-11-03T05:21:29.381Z,1.90
2022-11-03T05:24:02.402Z,2.07
2022-11-03T05:26:33.855Z,2.13
2022-11-03T05:29:04.860Z,2.30
2022-11-03T05:31:36.424Z,2.27
2022-11-03T05:34:14.207Z,2.10
2022-11-03T05:36:41.986Z,2.57
2022-11-03T05:39:26.994Z,2.40
2022-11-03T05:41:57.435Z,2.83
2022-11-03T05:44:36.651Z,2.27
2022-11-03T05:47:10.287Z,2.77
2022-11-03T05:49:38.074Z,2.47
2022-11-03T05:52:07.095Z,2.43
2022-11-03T05:54:35.911Z,2.47
2022-11-03T05:57:03.639Z,2.20
2022-11-03T05:59:32.675Z,2.80
2022-11-03T06:02:02.073Z,3.47
2022-11-03T06:04:33.795Z,2.40
2022-11-03T06:07:04.188Z,2.10
2022-11-03T06:09:34.818Z,2.77
2022-11-03T06:12:06.654Z,2.80
2022-11-03T06:14:37.629Z,2.63
2022-11-03T06:17:07.278Z,2.37
2022-11-03T06:19:39.213Z,2.30
2022-11-03T06:22:15.408Z,2.83
2022-11-03T06:24:43.681Z,2.80
2022-11-03T06:27:14.272Z,2.27
2022-11-03T06:29:48.700Z,2.90
2022-11-03T06:32:16.449Z,2.70
2022-11-03T06:34:49.568Z,2.50
2022-11-03T06:37:21.524Z,2.37
2022-11-03T06:39:50.796Z,2.60
2022-11-03T06:42:22.129Z,2.77
2022-11-03T06:44:52.640Z,2.10
2022-11-03T06:47:24.698Z,2.33
2022-11-03T06:49:54.256Z,2.50
2022-11-03T06:52:26.718Z,2.50
2022-11-03T06:55:00.529Z,2.13
2022-11-03T06:57:28.693Z,2.43
2022-11-03T07:00:13.244Z,2.53
2022-11-03T07:02:56.717Z,2.73
2022-11-03T07:05:26.368Z,2.37
2022-11-03T07:07:56.125Z,2.50
2022-11-03T07:10:38.428Z,2.80
2022-11-03T07:13:18.959Z,2.07
2022-11-03T07:15:48.708Z,2.43
2022-11-03T07:18:29.715Z,2.53
2022-11-03T07:21:03.075Z,2.30
2022-11-03T07:23:32.514Z,1.93
2022-11-03T07:26:02.276Z,2.80
2022-11-03T07:28:35.285Z,2.23
2022-11-03T07:31:16.443Z,2.10
2022-11-03T07:33:45.088Z,2.37
2022-11-03T07:36:17.830Z,2.30
2022-11-03T07:38:49.204Z,2.37
2022-11-03T07:41:21.575Z,2.30
2022-11-03T07:43:54.414Z,2.50
2022-11-03T07:46:26.073Z,2.30
2022-11-03T07:48:56.586Z,2.60
2022-11-03T07:51:27.191Z,2.57
2022-11-03T07:53:58.984Z,2.40
2022-11-03T07:56:28.953Z,2.50
2022-11-03T07:59:01.121Z,2.30
2022-11-03T08:01:32.552Z,2.67
2022-11-03T08:04:05.387Z,2.10
2022-11-03T08:06:35.090Z,2.57
2022-11-03T08:09:07.718Z,2.33
2022-11-03T08:11:35.429Z,2.30
2022-11-03T08:14:09.841Z,2.63
2022-11-03T08:16:39.167Z,2.30
2022-11-03T08:19:07.155Z,2.37
2022-11-03T08:21:35.527Z,2.23
2022-11-03T08:24:03.519Z,2.17
2022-11-03T08:26:34.341Z,2.60
2022-11-03T08:29:02.040Z,2.17
2022-11-03T08:31:29.740Z,2.20
2022-11-03T08:33:58.829Z,2.07
2022-11-03T08:36:26.588Z,2.67
2022-11-03T08:38:54.455Z,2.33
2022-11-03T08:41:22.154Z,2.20
2022-11-03T08:43:51.292Z,2.10
2022-11-03T08:46:19.028Z,2.40
2022-11-03T08:48:47.589Z,2.50
2022-11-03T08:51:17.407Z,1.93
2022-11-03T08:53:46.276Z,2.30
2022-11-03T08:56:16.989Z,1.80
2022-11-03T08:58:47.028Z,2.47
2022-11-03T09:01:15.532Z,1.87
2022-11-03T09:03:43.446Z,1.93
2022-11-03T09:06:11.593Z,2.57
2022-11-03T09:11:28.299Z,1.90
2022-11-03T09:13:57.728Z,2.03
2022-11-03T09:16:25.433Z,1.90
2022-11-03T09:18:55.559Z,2.00
2022-11-03T09:21:23.622Z,2.00
2022-11-03T09:23:55.248Z,2.00
2022-11-03T09:26:23.688Z,2.20
2022-11-03T09:28:51.444Z,2.00
2022-11-03T09:31:19.508Z,2.33
2022-11-03T09:33:47.256Z,2.13
2022-11-03T09:36:15.123Z,1.90
2022-11-03T09:38:43.011Z,1.77
2022-11-03T09:41:26.611Z,1.93
2022-11-03T09:43:58.575Z,1.90
2022-11-03T09:46:27.966Z,2.10
2022-11-03T09:48:56.923Z,2.13
2022-11-03T09:51:27.314Z,1.90
2022-11-03T09:53:57.809Z,2.10
2022-11-03T09:56:28.976Z,1.87
2022-11-03T09:58:56.704Z,2.00
2022-11-03T10:01:24.650Z,1.80
2022-11-03T10:03:52.832Z,1.90
2022-11-03T10:06:21.345Z,1.77
2022-11-03T10:08:50.308Z,2.20
2022-11-03T10:11:18.115Z,1.87
2022-11-03T10:13:52.909Z,1.90
2022-11-03T10:16:24.204Z,1.80
2022-11-03T10:18:53.065Z,2.13
2022-11-03T10:21:24.823Z,2.07
2022-11-03T10:23:52.632Z,2.57
2022-11-03T10:26:21.580Z,1.83
2022-11-03T10:29:09.790Z,1.60
2022-11-03T10:31:39.265Z,1.80
2022-11-03T10:34:08.180Z,1.93
2022-11-03T10:36:36.320Z,1.87
2022-11-03T10:39:25.641Z,1.87
2022-11-03T10:41:58.381Z,1.70
2022-11-03T10:44:29.662Z,1.53
2022-11-03T10:46:59.365Z,1.90
2022-11-03T10:49:29.355Z,2.00
2022-11-03T10:52:06.170Z,1.97
2022-11-03T10:54:36.136Z,2.07
2022-11-03T10:57:03.912Z,1.70
2022-11-03T10:59:36.827Z,1.90
2022-11-03T11:02:11.718Z,1.43
2022-11-03T11:04:39.553Z,1.47
2022-11-03T11:07:23.263Z,2.00
2022-11-03T11:09:51.071Z,1.67
2022-11-03T11:12:21.868Z,1.63
2022-11-03T11:14:56.619Z,1.70
2022-11-03T11:17:42.619Z,2.07
2022-11-03T11:20:34.319Z,1.40
2022-11-03T11:23:48.335Z,1.67
2022-11-03T11:26:33.001Z,2.03
2022-11-03T11:29:43.976Z,1.80
2022-11-03T11:32:53.511Z,1.70
2022-11-03T11:36:03.784Z,1.77
2022-11-03T11:39:06.825Z,1.90
2022-11-03T11:42:13.317Z,1.97
2022-11-03T11:44:54.018Z,1.50
2022-11-03T11:47:28.457Z,1.83
2022-11-03T11:50:27.938Z,2.10
2022-11-03T11:53:27.511Z,2.10
2022-11-03T11:56:00.573Z,1.83
2022-11-03T11:58:42.698Z,1.50
2022-11-03T12:01:23.040Z,1.57
2022-11-03T12:03:53.304Z,1.80
2022-11-03T12:06:34.491Z,1.27
2022-11-03T12:09:07.013Z,1.53
2022-11-03T12:11:46.074Z,1.80
2022-11-03T12:14:27.241Z,2.07
2022-11-03T12:16:55.429Z,1.60
2022-11-03T12:19:38.786Z,1.40
2022-11-03T12:22:08.901Z,1.63
2022-11-03T12:24:48.647Z,2.00
2022-11-03T12:27:40.688Z,1.80
2022-11-03T12:30:15.196Z,1.50
2022-11-03T12:32:42.894Z,1.70
2022-11-03T12:35:13.561Z,2.10
2022-11-03T12:37:42.095Z,2.00
2022-11-03T12:40:13.320Z,1.60
2022-11-03T12:42:41.020Z,1.80
2022-11-03T12:45:12.415Z,1.87
2022-11-03T12:47:40.142Z,1.97
2022-11-03T12:50:08.219Z,1.80
2022-11-03T12:52:35.976Z,1.70
2022-11-03T12:55:04.060Z,1.77
2022-11-03T12:57:31.804Z,1.70
2022-11-03T12:59:59.507Z,1.80
2022-11-03T13:02:28.764Z,1.90
2022-11-03T13:04:56.601Z,1.50
2022-11-03T13:07:30.373Z,2.27
2022-11-03T13:10:01.853Z,2.20
2022-11-03T13:12:32.219Z,2.37
2022-11-03T13:15:02.545Z,2.10
2022-11-03T13:17:40.402Z,2.00
2022-11-03T13:20:16.184Z,2.40
2022-11-03T13:22:44.144Z,2.47
2022-11-03T13:25:11.914Z,2.03
2022-11-03T13:27:39.649Z,2.20
2022-11-03T13:30:09.559Z,2.23
2022-11-03T13:32:38.664Z,1.97
2022-11-03T13:35:12.376Z,2.30
2022-11-03T13:37:41.831Z,1.70
2022-11-03T13:40:29.261Z,1.83
2022-11-03T13:42:59.837Z,2.00
2022-11-03T13:45:27.614Z,1.80
2022-11-03T13:48:48.503Z,2.20
2022-11-03T13:50:45.350Z,1.73
2022-11-03T13:56:05.833Z,2.17
2022-11-03T14:01:24.262Z,2.63
2022-11-03T14:06:41.721Z,2.20
2022-11-03T14:09:10.355Z,1.90
2022-11-03T14:11:55.702Z,2.00
2022-11-03T14:14:25.636Z,2.10
2022-11-03T14:16:53.449Z,1.90
2022-11-03T14:19:29.428Z,1.97
2022-11-03T14:22:01.540Z,2.27
2022-11-03T14:24:29.404Z,2.23
2022-11-03T14:26:57.148Z,2.03
2022-11-03T14:29:24.912Z,2.03
2022-11-03T14:31:52.575Z,2.07
2022-11-03T14:34:20.355Z,2.30
2022-11-03T14:36:52.118Z,1.77
2022-11-03T14:39:20.035Z,1.87
2022-11-03T14:42:04.756Z,2.03
2022-11-03T14:44:33.705Z,2.13
2022-11-03T14:47:02.674Z,2.10
2022-11-03T14:49:30.674Z,1.90
2022-11-03T14:52:01.666Z,2.00
2022-11-03T14:54:30.518Z,2.10
2022-11-03T14:56:58.509Z,2.13
2022-11-03T14:59:27.178Z,2.33
2022-11-03T15:01:55.947Z,2.40
2022-11-03T15:04:24.051Z,2.03
2022-11-03T15:06:54.497Z,2.23
2022-11-03T15:09:23.670Z,1.97
2022-11-03T15:11:51.688Z,2.60
2022-11-03T15:14:19.457Z,2.20
2022-11-03T15:16:48.023Z,2.13
2022-11-03T15:19:15.783Z,2.07
2022-11-03T15:21:43.680Z,2.07
2022-11-03T15:27:00.807Z,2.23
2022-11-03T15:29:28.549Z,2.10
2022-11-03T15:31:56.225Z,2.20
2022-11-03T15:34:24.020Z,2.20
2022-11-03T15:36:51.748Z,2.07
2022-11-03T15:39:19.469Z,2.00
2022-11-03T15:41:47.304Z,2.30
2022-11-03T15:44:18.661Z,2.00
2022-11-03T15:46:46.379Z,1.73
2022-11-03T15:49:14.070Z,2.10
2022-11-03T15:51:41.750Z,3.27
2022-11-03T15:54:09.511Z,1.90
2022-11-03T15:56:37.247Z,2.33
2022-11-03T15:59:04.988Z,1.77
2022-11-03T16:01:35.194Z,2.27
2022-11-03T16:04:02.944Z,1.83
2022-11-03T16:09:18.386Z,3.80
2022-11-03T16:11:47.318Z,2.37
2022-11-03T16:14:16.375Z,2.37
2022-11-03T16:16:45.874Z,2.77
2022-11-03T16:19:13.604Z,2.20
2022-11-03T16:21:41.437Z,2.30
2022-11-03T16:24:09.740Z,2.23
2022-11-03T16:26:37.515Z,2.40
2022-11-03T16:29:05.212Z,2.30
2022-11-03T16:31:32.907Z,2.03
2022-11-03T16:34:02.771Z,2.10
2022-11-03T16:36:30.810Z,2.13
2022-11-03T16:38:58.540Z,2.03
2022-11-03T16:41:26.353Z,2.27
2022-11-03T16:43:54.085Z,2.23
2022-11-03T16:46:21.836Z,2.00
2022-11-03T16:48:49.730Z,2.20
2022-11-03T16:51:19.362Z,1.93
2022-11-03T16:53:47.074Z,1.90
2022-11-03T16:56:14.891Z,3.03
2022-11-03T16:58:42.583Z,1.60
2022-11-03T17:01:10.306Z,1.90
2022-11-03T17:03:38.086Z,2.00
2022-11-03T17:06:06.171Z,2.00
2022-11-03T17:11:36.745Z,2.30
2022-11-03T17:14:06.169Z,1.70
2022-11-03T17:16:34.258Z,2.43
2022-11-03T17:19:02.066Z,2.30
2022-11-03T17:21:29.797Z,2.90
2022-11-03T17:24:00.224Z,2.20
2022-11-03T17:26:42.073Z,2.20
2022-11-03T17:29:16.369Z,2.20
2022-11-03T17:31:44.197Z,2.03
2022-11-03T17:34:12.978Z,2.80
2022-11-03T17:36:41.213Z,2.37
2022-11-03T17:39:14.785Z,2.40
2022-11-03T17:41:42.743Z,2.87
2022-11-03T17:44:12.495Z,2.90
2022-11-03T17:46:40.385Z,2.87
2022-11-03T17:49:08.140Z,3.10
2022-11-03T17:51:38.320Z,2.47
2022-11-03T17:54:08.141Z,2.33
2022-11-03T17:56:37.298Z,2.87
2022-11-03T17:59:05.663Z,2.50
2022-11-03T18:01:33.676Z,2.80
2022-11-03T18:04:02.722Z,2.10
2022-11-03T18:06:30.740Z,2.20
2022-11-03T18:08:59.347Z,1.90
2022-11-03T18:11:47.271Z,2.43
2022-11-03T18:14:16.944Z,2.40
2022-11-03T18:16:44.671Z,2.47
2022-11-03T18:19:13.646Z,2.47
2022-11-03T18:21:42.011Z,2.30
2022-11-03T18:24:13.334Z,2.20
2022-11-03T18:26:41.239Z,2.30
2022-11-03T18:29:09.271Z,2.73
2022-11-03T18:31:44.005Z,2.27
2022-11-03T18:34:15.835Z,2.57
2022-11-03T18:36:44.345Z,2.70
2022-11-03T18:39:17.878Z,2.53
2022-11-03T18:41:45.948Z,2.33
2022-11-03T18:44:18.753Z,2.40
2022-11-03T18:46:48.168Z,2.27
2022-11-03T18:49:16.771Z,2.60
2022-11-03T18:51:48.599Z,2.50
2022-11-03T18:54:21.623Z,2.00
2022-11-03T18:56:50.333Z,2.13
2022-11-03T18:59:23.745Z,2.23
2022-11-03T19:01:53.299Z,2.23
2022-11-03T19:04:21.152Z,2.00
2022-11-03T19:06:50.651Z,2.30
2022-11-03T19:09:24.708Z,2.47
2022-11-03T19:11:55.855Z,2.30
2022-11-03T19:14:27.575Z,1.90
2022-11-03T19:19:45.553Z,2.10
2022-11-03T19:22:14.794Z,2.27
2022-11-03T19:24:42.916Z,2.50
2022-11-03T19:27:16.191Z,3.20
2022-11-03T19:29:47.216Z,2.50
2022-11-03T19:32:21.840Z,2.40
2022-11-03T19:34:56.092Z,2.47
2022-11-03T19:37:23.896Z,2.47
2022-11-03T19:39:51.699Z,2.57
2022-11-03T19:42:29.308Z,2.67
2022-11-03T19:44:58.143Z,3.47
2022-11-03T19:47:32.581Z,3.97
2022-11-03T19:50:02.492Z,2.57
2022-11-03T19:52:31.329Z,2.40
2022-11-03T19:55:01.987Z,2.70
2022-11-03T19:57:29.765Z,2.97
2022-11-03T19:59:59.091Z,2.63
2022-11-03T20:02:29.789Z,2.60
2022-11-03T20:04:58.988Z,2.83
2022-11-03T20:07:31.528Z,2.67
2022-11-03T20:10:00.935Z,2.60
2022-11-03T20:12:30.867Z,2.83
2022-11-03T20:15:01.642Z,2.73
2022-11-03T20:17:30.764Z,2.73
2022-11-03T20:19:58.465Z,2.60
2022-11-03T20:22:30.180Z,3.27
2022-11-03T20:25:03.170Z,2.93
2022-11-03T20:27:30.945Z,2.67
2022-11-03T20:29:58.688Z,3.00
2022-11-03T20:32:26.422Z,2.73
2022-11-03T20:34:55.759Z,3.17
2022-11-03T20:37:23.502Z,2.77
2022-11-03T20:39:51.300Z,2.93
2022-11-03T20:42:22.420Z,2.77
2022-11-03T20:44:50.664Z,2.77
2022-11-03T20:47:18.996Z,2.70
2022-11-03T20:49:46.865Z,2.27
2022-11-03T20:52:17.125Z,2.77
2022-11-03T20:54:45.153Z,3.23
2022-11-03T20:57:14.392Z,2.97
2022-11-03T20:59:42.201Z,2.63
2022-11-03T21:02:12.227Z,2.97
2022-11-03T21:04:40.947Z,2.67
2022-11-03T21:07:12.139Z,3.10
2022-11-03T21:09:41.418Z,3.00
2022-11-03T21:12:13.111Z,2.63
2022-11-03T21:15:04.037Z,3.23
2022-11-03T21:17:49.176Z,2.77
2022-11-03T21:20:17.059Z,2.80
2022-11-03T21:22:53.723Z,2.97
2022-11-03T21:25:24.961Z,2.80
2022-11-03T21:27:54.466Z,2.70
2022-11-03T21:30:23.263Z,2.40
2022-11-03T21:32:51.124Z,2.70
2022-11-03T21:35:21.364Z,2.70
2022-11-03T21:37:49.484Z,2.73
2022-11-03T21:40:17.633Z,2.80
2022-11-03T21:43:04.059Z,2.70
2022-11-03T21:45:32.140Z,2.50
2022-11-03T21:48:17.829Z,2.50
2022-11-03T21:50:46.151Z,2.70
2022-11-03T21:53:14.138Z,3.03
2022-11-03T21:55:42.201Z,2.53
2022-11-03T21:58:11.331Z,3.07
2022-11-03T22:00:39.085Z,2.70
2022-11-03T22:03:09.614Z,2.87
2022-11-03T22:05:37.864Z,2.93
2022-11-03T22:08:08.629Z,3.00
2022-11-03T22:10:39.432Z,2.97
2022-11-03T22:13:07.512Z,2.67
2022-11-03T22:15:54.370Z,2.70
2022-11-03T22:18:22.150Z,2.60
2022-11-03T22:21:07.442Z,2.80
2022-11-03T22:23:52.896Z,3.17
2022-11-03T22:26:38.280Z,3.37
2022-11-03T22:29:25.761Z,2.87
2022-11-03T22:31:54.837Z,3.00
2022-11-03T22:34:40.114Z,2.70
2022-11-03T22:37:07.840Z,2.70
2022-11-03T22:39:53.711Z,2.90
2022-11-03T22:42:39.200Z,3.17
2022-11-03T22:45:24.873Z,2.50
2022-11-03T22:47:57.136Z,3.10
2022-11-03T22:50:25.536Z,2.63
2022-11-03T22:52:53.311Z,2.53
2022-11-03T22:55:20.014Z,2.80
2022-11-03T22:57:47.702Z,3.27
2022-11-03T23:00:17.031Z,3.13
2022-11-03T23:02:44.752Z,2.73
2022-11-03T23:05:13.914Z,3.07
2022-11-03T23:07:41.905Z,3.00
2022-11-03T23:10:10.049Z,3.17
2022-11-03T23:12:37.779Z,3.30
2022-11-03T23:15:23.869Z,2.90
2022-11-03T23:18:14.487Z,2.67
2022-11-03T23:21:00.974Z,2.63
2022-11-03T23:23:46.805Z,2.90
2022-11-03T23:26:14.688Z,3.73
2022-11-03T23:28:42.774Z,3.27
2022-11-03T23:31:11.085Z,3.10
2022-11-03T23:33:39.237Z,2.80
2022-11-03T23:36:10.795Z,3.07
2022-11-03T23:38:39.198Z,3.47
2022-11-03T23:41:09.618Z,3.20
2022-11-03T23:43:37.373Z,3.17
2022-11-03T23:46:23.153Z,3.20
2022-11-03T23:48:52.169Z,3.17
2022-11-03T23:51:22.396Z,3.50
2022-11-03T23:53:50.772Z,3.67
2022-11-03T23:56:38.194Z,3.27
2022-11-03T23:59:06.593Z,3.20
